Time;durP1;ratioP1;P1;durP2;ratioP2;P2;SDS_P1;SDS_P2;PMS_P1;PMS_P2;Temp;Humidity;BMP_temperature;BMP_pressure;BME280_temperature;BME280_humidity;BME280_pressure;Samples;Min_cycle;Max_cycle;Signal;HPM_P1;HPM_P2
2022/02/20 00:02:30;;;;;;;3.40;1.38;;;;;;;;;;10415653;28;20475;-81
2022/02/20 00:07:37;;;;;;;4.40;1.55;;;;;;;;;;10405583;28;20038;-81
2022/02/20 00:12:43;;;;;;;5.30;1.67;;;;;;;;;;10414766;28;20021;-81
2022/02/20 00:17:48;;;;;;;4.05;1.65;;;;;;;;;;10398538;28;20049;-81
2022/02/20 00:22:55;;;;;;;4.38;1.58;;;;;;;;;;10432637;28;20029;-80
2022/02/20 00:28:11;;;;;;;5.57;1.65;;;;;;;;;;10431895;28;20026;-81
2022/02/20 00:33:54;;;;;;;7.57;1.70;;;;;;;;;;10402586;28;20065;-81
2022/02/20 00:39:40;;;;;;;5.22;1.42;;;;;;;;;;10431534;28;20030;-81
2022/02/20 00:45:03;;;;;;;5.18;1.42;;;;;;;;;;10431055;28;20050;-81
2022/02/20 00:50:05;;;;;;;5.60;1.33;;;;;;;;;;10413487;28;20025;-81
2022/02/20 00:55:13;;;;;;;6.82;1.27;;;;;;;;;;10376466;28;20434;-80
2022/02/20 01:00:18;;;;;;;3.60;1.10;;;;;;;;;;10412237;28;20438;-81
2022/02/20 01:05:20;;;;;;;4.72;0.90;;;;;;;;;;10430519;28;20033;-80
2022/02/20 01:10:26;;;;;;;7.10;1.55;;;;;;;;;;10412809;28;20021;-81
2022/02/20 01:15:31;;;;;;;3.88;0.95;;;;;;;;;;10412056;28;20458;-81
2022/02/20 01:21:06;;;;;;;3.75;0.82;;;;;;;;;;10431195;28;20491;-81
2022/02/20 01:26:07;;;;;;;3.65;1.00;;;;;;;;;;10411711;28;20402;-81
2022/02/20 01:31:25;;;;;;;4.22;1.15;;;;;;;;;;10429625;28;20100;-81
2022/02/20 01:36:30;;;;;;;4.03;1.40;;;;;;;;;;10427357;28;20037;-81
2022/02/20 01:41:35;;;;;;;7.38;1.58;;;;;;;;;;10408078;28;20033;-81
2022/02/20 01:46:47;;;;;;;5.03;1.00;;;;;;;;;;10428957;28;20033;-81
2022/02/20 01:51:51;;;;;;;3.88;1.20;;;;;;;;;;10395999;28;20029;-81
2022/02/20 01:56:55;;;;;;;4.60;1.05;;;;;;;;;;10428467;28;20045;-81
2022/02/20 02:02:19;;;;;;;4.15;1.10;;;;;;;;;;10435725;28;20057;-80
2022/02/20 02:07:20;;;;;;;5.03;1.25;;;;;;;;;;10431357;28;20126;-80
2022/02/20 02:12:45;;;;;;;2.53;0.88;;;;;;;;;;10420945;28;20033;-81
2022/02/20 02:17:53;;;;;;;2.88;0.88;;;;;;;;;;10431776;28;20193;-80
2022/02/20 02:23:19;;;;;;;2.97;0.88;;;;;;;;;;10410067;28;20061;-81
2022/02/20 02:28:46;;;;;;;3.92;0.80;;;;;;;;;;10413107;28;20089;-81
2022/02/20 02:33:56;;;;;;;4.38;1.23;;;;;;;;;;10406897;28;20040;-81
2022/02/20 02:39:12;;;;;;;4.07;0.63;;;;;;;;;;10410357;28;20041;-81
2022/02/20 02:44:33;;;;;;;8.05;1.10;;;;;;;;;;10411601;28;20497;-82
2022/02/20 02:50:19;;;;;;;2.50;0.80;;;;;;;;;;10426286;28;20029;-81
2022/02/20 02:55:26;;;;;;;3.25;0.80;;;;;;;;;;10409473;28;20056;-81
2022/02/20 03:00:37;;;;;;;2.95;0.80;;;;;;;;;;10427803;28;20029;-81
2022/02/20 03:05:39;;;;;;;3.55;0.88;;;;;;;;;;10409204;28;20040;-80
2022/02/20 03:10:45;;;;;;;3.08;1.00;;;;;;;;;;10428325;28;20026;-81
2022/02/20 03:15:49;;;;;;;3.50;0.98;;;;;;;;;;10427247;28;20057;-81
2022/02/20 03:20:51;;;;;;;3.08;0.80;;;;;;;;;;10410465;28;20537;-81
2022/02/20 03:25:52;;;;;;;3.67;0.98;;;;;;;;;;10409709;28;20029;-82
2022/02/20 03:30:55;;;;;;;3.10;0.75;;;;;;;;;;10409631;28;20039;-81
2022/02/20 03:35:56;;;;;;;3.38;0.70;;;;;;;;;;10409562;28;20036;-82
2022/02/20 03:41:04;;;;;;;4.78;1.00;;;;;;;;;;10409624;28;20434;-81
2022/02/20 03:46:05;;;;;;;2.80;0.82;;;;;;;;;;10408658;28;20056;-81
2022/02/20 03:51:06;;;;;;;;;;;;;;;;;;10409507;28;20021;-82
2022/02/20 03:56:14;;;;;;;2.20;0.60;;;;;;;;;;10409530;28;19913;-80
2022/02/20 04:01:15;;;;;;;3.78;1.10;;;;;;;;;;10427270;28;20034;-82
2022/02/20 04:06:16;;;;;;;2.50;1.00;;;;;;;;;;10413882;28;20124;-81
2022/02/20 04:11:17;;;;;;;2.65;0.65;;;;;;;;;;10419716;28;20043;-81
2022/02/20 04:16:18;;;;;;;3.83;1.20;;;;;;;;;;10420792;28;20029;-81
2022/02/20 04:21:21;;;;;;;3.75;1.20;;;;;;;;;;10423137;28;20030;-81
2022/02/20 04:26:22;;;;;;;1.85;0.90;;;;;;;;;;10400982;28;20032;-81
2022/02/20 04:31:27;;;;;;;1.20;0.70;;;;;;;;;;10414653;28;20036;-82
2022/02/20 04:36:34;;;;;;;3.58;1.08;;;;;;;;;;10416242;28;20557;-82
2022/02/20 04:41:43;;;;;;;2.78;1.08;;;;;;;;;;10417111;28;20602;-81
2022/02/20 04:46:46;;;;;;;2.42;1.20;;;;;;;;;;10416945;28;20033;-81
2022/02/20 04:51:53;;;;;;;2.42;1.20;;;;;;;;;;10417406;28;20052;-82
2022/02/20 04:57:01;;;;;;;4.25;1.48;;;;;;;;;;10441699;28;20064;-81
2022/02/20 05:02:03;;;;;;;2.55;0.60;;;;;;;;;;10435840;28;20026;-81
2022/02/20 05:07:07;;;;;;;3.70;1.05;;;;;;;;;;10421484;28;20029;-82
2022/02/20 05:12:13;;;;;;;1.70;0.68;;;;;;;;;;10418178;28;20037;-82
2022/02/20 05:17:16;;;;;;;2.33;0.77;;;;;;;;;;10416151;28;20029;-82
2022/02/20 05:22:22;;;;;;;2.80;0.70;;;;;;;;;;10416591;28;20372;-82
2022/02/20 05:27:27;;;;;;;2.63;0.73;;;;;;;;;;10432748;28;20037;-84
2022/02/20 05:32:28;;;;;;;2.30;0.70;;;;;;;;;;10461987;23;20051;-81
2022/02/20 05:37:38;;;;;;;1.85;0.73;;;;;;;;;;10463765;28;20079;-83
2022/02/20 05:42:41;;;;;;;2.90;1.03;;;;;;;;;;10462686;28;20044;-82
2022/02/20 05:47:42;;;;;;;3.15;0.77;;;;;;;;;;10463696;28;20398;-81
2022/02/20 05:52:44;;;;;;;;;;;;;;;;;;10463457;28;20025;-82
2022/02/20 05:57:47;;;;;;;3.30;1.40;;;;;;;;;;10481642;28;19915;-82
2022/02/20 06:02:48;;;;;;;6.05;2.10;;;;;;;;;;10464407;28;20029;-82
2022/02/20 06:07:51;;;;;;;;;;;;;;;;;;10463974;28;20037;-84
2022/02/20 06:12:53;;;;;;;3.53;1.45;;;;;;;;;;10463052;28;19908;-82
2022/02/20 06:17:58;;;;;;;4.57;2.20;;;;;;;;;;10463339;28;20067;-82
2022/02/20 06:22:59;;;;;;;2.67;0.90;;;;;;;;;;10463492;28;20063;-82
2022/02/20 06:28:00;;;;;;;4.45;1.65;;;;;;;;;;10461903;28;20037;-82
2022/02/20 06:33:01;;;;;;;3.92;1.60;;;;;;;;;;10462181;28;20037;-82
2022/02/20 06:38:02;;;;;;;3.03;1.17;;;;;;;;;;10463515;28;20037;-83
2022/02/20 06:43:03;;;;;;;7.57;3.15;;;;;;;;;;10479739;28;20507;-82
2022/02/20 06:48:04;;;;;;;;;;;;;;;;;;10463217;28;20044;-81
2022/02/20 06:53:08;;;;;;;2.97;1.27;;;;;;;;;;10462776;28;19943;-82
2022/02/20 06:58:09;;;;;;;4.57;1.58;;;;;;;;;;10488655;28;20036;-81
2022/02/20 07:03:10;;;;;;;;;;;;;;;;;;10497195;28;20116;-83
2022/02/20 07:08:11;;;;;;;3.80;2.10;;;;;;;;;;10497314;28;19908;-83
2022/02/20 07:13:12;;;;;;;5.32;2.28;;;;;;;;;;10468320;28;20056;-82
2022/02/20 07:18:13;;;;;;;6.35;2.17;;;;;;;;;;10466911;28;20051;-82
2022/02/20 07:23:14;;;;;;;8.10;2.45;;;;;;;;;;10466690;28;20093;-81
2022/02/20 07:28:15;;;;;;;6.25;1.60;;;;;;;;;;10464518;28;20097;-82
2022/02/20 07:33:16;;;;;;;6.07;2.35;;;;;;;;;;10463285;28;20009;-82
2022/02/20 07:38:17;;;;;;;5.25;1.63;;;;;;;;;;10464580;28;20029;-82
2022/02/20 07:43:18;;;;;;;7.55;2.30;;;;;;;;;;10470108;28;20033;-82
2022/02/20 07:48:19;;;;;;;5.95;2.03;;;;;;;;;;10470247;28;20044;-82
2022/02/20 07:53:20;;;;;;;8.52;2.50;;;;;;;;;;10470141;28;20025;-81
2022/02/20 07:58:21;;;;;;;6.85;2.38;;;;;;;;;;10487754;28;20475;-81
2022/02/20 08:03:22;;;;;;;6.38;2.28;;;;;;;;;;10469776;28;20033;-81
2022/02/20 08:08:23;;;;;;;7.13;1.95;;;;;;;;;;10487399;28;20024;-81
2022/02/20 08:13:25;;;;;;;3.63;1.65;;;;;;;;;;10468932;28;20059;-83
2022/02/20 08:18:25;;;;;;;;;;;;;;;;;;10469153;28;20562;-81
2022/02/20 08:23:26;;;;;;;5.93;2.40;;;;;;;;;;10473820;28;19944;-81
2022/02/20 08:28:27;;;;;;;8.15;2.25;;;;;;;;;;10495087;28;20287;-81
2022/02/20 08:33:29;;;;;;;6.47;1.92;;;;;;;;;;10475252;28;20124;-81
2022/02/20 08:38:29;;;;;;;5.90;1.83;;;;;;;;;;10471846;28;20044;-81
2022/02/20 08:43:30;;;;;;;5.57;2.42;;;;;;;;;;10465909;28;20092;-81
2022/02/20 08:48:36;;;;;;;5.47;1.45;;;;;;;;;;10469212;28;20174;-81
2022/02/20 08:53:38;;;;;;;3.17;1.20;;;;;;;;;;10471943;28;20021;-81
2022/02/20 08:58:39;;;;;;;5.28;1.60;;;;;;;;;;10474117;28;20029;-82
2022/02/20 09:03:41;;;;;;;5.05;1.48;;;;;;;;;;10470277;28;20489;-82
2022/02/20 09:08:42;;;;;;;5.85;2.30;;;;;;;;;;10472185;28;20066;-81
2022/02/20 09:13:43;;;;;;;6.80;2.38;;;;;;;;;;10468441;28;20021;-82
2022/02/20 09:18:45;;;;;;;8.43;2.45;;;;;;;;;;10469898;28;20040;-82
2022/02/20 09:23:46;;;;;;;;;;;;;;;;;;10469353;28;20028;-82
2022/02/20 09:28:47;;;;;;;6.13;2.10;;;;;;;;;;10471510;28;19947;-82
2022/02/20 09:33:48;;;;;;;5.20;2.03;;;;;;;;;;10492932;28;20692;-81
2022/02/20 09:38:49;;;;;;;4.13;1.92;;;;;;;;;;10471923;28;20033;-81
2022/02/20 09:43:50;;;;;;;4.82;2.13;;;;;;;;;;10469319;28;20025;-81
2022/02/20 09:48:52;;;;;;;4.68;2.03;;;;;;;;;;10489967;28;20025;-82
2022/02/20 09:53:53;;;;;;;3.65;1.98;;;;;;;;;;10468259;28;20031;-80
2022/02/20 09:58:54;;;;;;;5.57;1.90;;;;;;;;;;10487159;28;20040;-82
2022/02/20 10:03:55;;;;;;;4.30;1.80;;;;;;;;;;10485229;28;20021;-80
2022/02/20 10:08:58;;;;;;;4.45;2.30;;;;;;;;;;10479147;28;20033;-82
2022/02/20 10:14:02;;;;;;;5.25;2.30;;;;;;;;;;10471695;28;20049;-81
2022/02/20 10:19:04;;;;;;;5.68;2.42;;;;;;;;;;10471632;28;20546;-82
2022/02/20 10:24:07;;;;;;;7.70;2.50;;;;;;;;;;10468990;28;20078;-81
2022/02/20 10:29:08;;;;;;;3.80;1.63;;;;;;;;;;10466056;28;20049;-81
2022/02/20 10:34:12;;;;;;;5.68;2.55;;;;;;;;;;10476960;28;20036;-81
2022/02/20 10:39:17;;;;;;;3.95;2.00;;;;;;;;;;10476058;28;20039;-82
2022/02/20 10:44:18;;;;;;;4.50;2.10;;;;;;;;;;10469534;28;20029;-81
2022/02/20 10:49:23;;;;;;;4.28;2.03;;;;;;;;;;10467314;28;20060;-81
2022/02/20 10:54:24;;;;;;;4.38;1.88;;;;;;;;;;10471588;28;20124;-82
2022/02/20 10:59:45;;;;;;;4.28;2.00;;;;;;;;;;10467672;28;20025;-82
2022/02/20 11:04:46;;;;;;;5.43;2.10;;;;;;;;;;10469268;28;20518;-82
2022/02/20 11:09:47;;;;;;;4.55;1.58;;;;;;;;;;10473306;28;20032;-82
2022/02/20 11:14:50;;;;;;;6.00;1.88;;;;;;;;;;10473809;28;20056;-82
2022/02/20 11:19:52;;;;;;;3.75;1.52;;;;;;;;;;10483559;28;20036;-82
2022/02/20 11:24:55;;;;;;;5.40;1.98;;;;;;;;;;10496520;28;20429;-82
2022/02/20 11:29:56;;;;;;;4.78;1.58;;;;;;;;;;10476750;28;20021;-82
2022/02/20 11:34:58;;;;;;;5.68;2.15;;;;;;;;;;10505547;22;20045;-82
2022/02/20 11:45:54;;;;;;;5.25;1.73;;;;;;;;;;10494165;28;20048;-81
2022/02/20 11:51:25;;;;;;;;;;;;;;;;;;;;;
2022/02/20 11:56:46;;;;;;;;;;;;;;;;;;;;;
2022/02/20 12:02:14;;;;;;;5.45;1.70;;;;;;;;;;10505953;28;20081;-80
2022/02/20 12:07:32;;;;;;;5.28;1.75;;;;;;;;;;10491434;28;20068;-80
2022/02/20 12:12:34;;;;;;;5.70;1.80;;;;;;;;;;10508107;28;20021;-80
2022/02/20 12:17:35;;;;;;;4.55;1.50;;;;;;;;;;10489792;28;20108;-80
2022/02/20 12:22:36;;;;;;;4.97;1.50;;;;;;;;;;10468712;28;20146;-78
2022/02/20 12:27:37;;;;;;;;;;;;;;;;;;10485707;28;20037;-80
2022/02/20 12:32:40;;;;;;;5.50;1.65;;;;;;;;;;10482609;28;19940;-80
2022/02/20 12:37:41;;;;;;;4.70;1.65;;;;;;;;;;10476968;28;20064;-80
2022/02/20 12:42:49;;;;;;;5.80;2.08;;;;;;;;;;10465114;28;20036;-80
2022/02/20 12:47:53;;;;;;;6.25;2.13;;;;;;;;;;10484174;28;20025;-80
2022/02/20 12:52:55;;;;;;;7.07;2.42;;;;;;;;;;10466006;28;20041;-80
2022/02/20 12:58:10;;;;;;;7.55;2.15;;;;;;;;;;10483019;28;20028;-80
2022/02/20 13:03:13;;;;;;;6.78;1.90;;;;;;;;;;10498399;28;20037;-80
2022/02/20 13:08:15;;;;;;;7.18;2.33;;;;;;;;;;10464253;28;20123;-79
2022/02/20 13:13:17;;;;;;;7.57;2.15;;;;;;;;;;10478900;28;20053;-81
2022/02/20 13:18:21;;;;;;;8.07;1.88;;;;;;;;;;10458162;28;20024;-82
2022/02/20 13:23:32;;;;;;;5.03;1.75;;;;;;;;;;10484878;28;20029;-82
2022/02/20 13:28:40;;;;;;;7.30;2.30;;;;;;;;;;10486390;28;20029;-82
2022/02/20 13:33:58;;;;;;;4.63;1.70;;;;;;;;;;10475884;28;20037;-81
2022/02/20 13:39:05;;;;;;;6.70;2.03;;;;;;;;;;10480631;28;20037;-82
2022/02/20 13:44:08;;;;;;;7.75;2.95;;;;;;;;;;10465117;28;20059;-82
2022/02/20 13:49:10;;;;;;;7.95;2.30;;;;;;;;;;10456790;28;20122;-83
2022/02/20 13:54:24;;;;;;;6.13;1.77;;;;;;;;;;10476687;28;20116;-81
2022/02/20 13:59:25;;;;;;;7.60;2.72;;;;;;;;;;10474224;28;20097;-82
2022/02/20 14:04:44;;;;;;;5.13;2.08;;;;;;;;;;10469162;28;20029;-81
2022/02/20 14:10:14;;;;;;;6.85;2.40;;;;;;;;;;10464358;28;20127;-81
2022/02/20 14:15:46;;;;;;;4.80;2.08;;;;;;;;;;10462453;28;20490;-84
2022/02/20 14:20:52;;;;;;;7.40;2.70;;;;;;;;;;10432247;28;20029;-81
2022/02/20 14:26:24;;;;;;;6.28;1.92;;;;;;;;;;10470953;28;20051;-81
2022/02/20 14:31:25;;;;;;;;;;;;;;;;;;10458804;28;20407;-81
2022/02/20 14:36:35;;;;;;;6.43;2.17;;;;;;;;;;10451311;28;19954;-82
2022/02/20 14:41:36;;;;;;;6.55;2.28;;;;;;;;;;10478332;28;20033;-83
2022/02/20 14:47:17;;;;;;;6.22;2.70;;;;;;;;;;10486209;28;20092;-81
2022/02/20 14:52:19;;;;;;;5.63;2.30;;;;;;;;;;10464322;28;20037;-82
2022/02/20 14:57:20;;;;;;;9.27;3.17;;;;;;;;;;10462890;28;20047;-81
2022/02/20 15:02:22;;;;;;;7.15;2.22;;;;;;;;;;10477525;28;20092;-82
2022/02/20 15:07:58;;;;;;;6.95;2.08;;;;;;;;;;10495521;28;20063;-82
2022/02/20 15:13:00;;;;;;;7.20;2.13;;;;;;;;;;10494202;28;20390;-82
2022/02/20 15:18:07;;;;;;;8.75;2.38;;;;;;;;;;10476282;28;20489;-82
2022/02/20 15:23:18;;;;;;;8.73;2.25;;;;;;;;;;10479824;28;20052;-81
2022/02/20 15:28:24;;;;;;;6.50;1.85;;;;;;;;;;10476259;28;20037;-81
2022/02/20 15:33:26;;;;;;;8.45;2.88;;;;;;;;;;10497732;28;20470;-83
2022/02/20 15:38:29;;;;;;;5.85;2.13;;;;;;;;;;10461294;28;20035;-82
2022/02/20 15:43:30;;;;;;;11.25;3.08;;;;;;;;;;10475027;28;20055;-82
2022/02/20 15:48:32;;;;;;;12.32;3.30;;;;;;;;;;10449030;28;20040;-82
2022/02/20 15:53:36;;;;;;;7.53;2.22;;;;;;;;;;10449586;28;20112;-83
2022/02/20 15:58:37;;;;;;;10.02;2.40;;;;;;;;;;10450097;28;20025;-83
2022/02/20 16:03:38;;;;;;;9.65;2.83;;;;;;;;;;10476341;28;20024;-83
2022/02/20 16:08:40;;;;;;;5.93;1.90;;;;;;;;;;10455814;28;20040;-83
2022/02/20 16:13:41;;;;;;;7.78;2.33;;;;;;;;;;10456076;28;20052;-82
2022/02/20 16:18:48;;;;;;;7.90;2.40;;;;;;;;;;10457403;28;20144;-82
2022/02/20 16:23:50;;;;;;;8.38;3.13;;;;;;;;;;10457745;28;20048;-83
2022/02/20 16:29:01;;;;;;;10.80;2.67;;;;;;;;;;10458947;28;20403;-83
2022/02/20 16:34:04;;;;;;;7.38;2.30;;;;;;;;;;10500517;28;20040;-82
2022/02/20 16:39:05;;;;;;;6.10;2.17;;;;;;;;;;10485880;28;20147;-82
2022/02/20 16:44:06;;;;;;;6.35;1.70;;;;;;;;;;10460624;28;20100;-82
2022/02/20 16:49:07;;;;;;;8.57;2.15;;;;;;;;;;10461625;28;20029;-82
2022/02/20 16:54:11;;;;;;;;;;;;;;;;;;10473183;28;20021;-82
2022/02/20 16:59:13;;;;;;;7.80;1.98;;;;;;;;;;10456847;28;19911;-84
2022/02/20 17:04:15;;;;;;;6.05;2.08;;;;;;;;;;10474392;28;20029;-83
2022/02/20 17:09:20;;;;;;;7.03;2.08;;;;;;;;;;10455049;28;20051;-82
2022/02/20 17:14:25;;;;;;;7.35;2.35;;;;;;;;;;10454665;28;20031;-83
2022/02/20 17:19:26;;;;;;;5.95;1.88;;;;;;;;;;10453210;28;20024;-81
2022/02/20 17:24:27;;;;;;;;;;;;;;;;;;10471102;28;20047;-81
2022/02/20 17:29:28;;;;;;;8.43;1.98;;;;;;;;;;10453207;28;19919;-81
2022/02/20 17:34:30;;;;;;;5.22;1.92;;;;;;;;;;10508390;22;20049;-83
2022/02/20 17:39:31;;;;;;;7.57;1.98;;;;;;;;;;10481354;28;20035;-85
2022/02/20 17:44:32;;;;;;;;;;;;;;;;;;10480686;28;20048;-82
2022/02/20 17:49:34;;;;;;;6.38;2.30;;;;;;;;;;10475182;28;19920;-81
2022/02/20 17:54:41;;;;;;;8.00;2.70;;;;;;;;;;10481210;28;20097;-82
2022/02/20 17:59:48;;;;;;;7.90;2.65;;;;;;;;;;10494535;28;20395;-82
2022/02/20 18:04:54;;;;;;;7.30;2.10;;;;;;;;;;10476271;28;20414;-81
2022/02/20 18:09:55;;;;;;;7.97;2.15;;;;;;;;;;10474582;28;20021;-81
2022/02/20 18:15:03;;;;;;;4.85;1.77;;;;;;;;;;10477333;28;20034;-82
2022/02/20 18:20:12;;;;;;;6.20;1.85;;;;;;;;;;10483436;28;20064;-81
2022/02/20 18:25:17;;;;;;;6.63;2.10;;;;;;;;;;10498690;28;20372;-82
2022/02/20 18:30:22;;;;;;;5.95;2.10;;;;;;;;;;10493614;28;20051;-82
2022/02/20 18:35:23;;;;;;;6.60;2.00;;;;;;;;;;10472478;28;20037;-82
2022/02/20 18:40:27;;;;;;;6.53;1.92;;;;;;;;;;10472265;28;20021;-82
2022/02/20 18:45:34;;;;;;;6.63;2.15;;;;;;;;;;10473213;28;20033;-82
2022/02/20 18:50:38;;;;;;;6.47;2.10;;;;;;;;;;10474088;28;20021;-82
2022/02/20 18:55:39;;;;;;;7.40;2.33;;;;;;;;;;10473679;28;20025;-82
2022/02/20 19:00:40;;;;;;;;;;;;;;;;;;10493221;28;20032;-82
2022/02/20 19:05:42;;;;;;;6.40;2.30;;;;;;;;;;10478792;28;19947;-82
2022/02/20 19:10:46;;;;;;;;;;;;;;;;;;10479629;28;20052;-82
2022/02/20 19:15:47;;;;;;;8.35;2.35;;;;;;;;;;10477323;28;19916;-82
2022/02/20 19:20:49;;;;;;;9.73;2.92;;;;;;;;;;10451809;28;20061;-81
2022/02/20 19:25:50;;;;;;;12.00;2.55;;;;;;;;;;10471796;28;20026;-81
2022/02/20 19:30:58;;;;;;;6.43;2.03;;;;;;;;;;10467735;28;20029;-83
2022/02/20 19:36:01;;;;;;;9.25;2.88;;;;;;;;;;10472566;28;20036;-82
2022/02/20 19:41:09;;;;;;;10.77;3.30;;;;;;;;;;10476132;28;20040;-83
2022/02/20 19:46:10;;;;;;;10.40;2.80;;;;;;;;;;10478330;28;20155;-83
2022/02/20 19:51:11;;;;;;;11.85;2.95;;;;;;;;;;10478345;28;20029;-82
2022/02/20 19:56:12;;;;;;;8.20;2.15;;;;;;;;;;10481998;28;20120;-81
2022/02/20 20:01:16;;;;;;;10.82;2.92;;;;;;;;;;10473821;28;20033;-81
2022/02/20 20:06:17;;;;;;;8.38;2.70;;;;;;;;;;10473685;28;20119;-82
2022/02/20 20:11:19;;;;;;;8.48;2.28;;;;;;;;;;10474444;28;20029;-81
2022/02/20 20:16:20;;;;;;;9.95;2.47;;;;;;;;;;10475702;28;20029;-82
2022/02/20 20:21:21;;;;;;;5.88;2.05;;;;;;;;;;10496393;28;20033;-81
2022/02/20 20:26:23;;;;;;;10.25;2.97;;;;;;;;;;10475726;28;20025;-82
2022/02/20 20:31:24;;;;;;;;;;;;;;;;;;10476222;28;20029;-80
2022/02/20 20:36:25;;;;;;;8.20;2.50;;;;;;;;;;10493872;28;19917;-81
2022/02/20 20:41:26;;;;;;;7.43;2.30;;;;;;;;;;10493558;28;20077;-81
2022/02/20 20:46:29;;;;;;;11.10;2.25;;;;;;;;;;10490829;28;20041;-81
2022/02/20 20:51:30;;;;;;;10.90;2.10;;;;;;;;;;10492926;28;20017;-81
2022/02/20 20:56:32;;;;;;;6.10;2.08;;;;;;;;;;10492915;28;20063;-80
2022/02/20 21:01:33;;;;;;;10.27;2.28;;;;;;;;;;10491681;28;20111;-81
2022/02/20 21:06:34;;;;;;;6.90;1.70;;;;;;;;;;10481228;28;20036;-82
2022/02/20 21:11:36;;;;;;;7.43;2.25;;;;;;;;;;10481459;28;20025;-82
